createdAt,value
2022-12-17T00:01:22.345Z,33.97
2022-12-17T00:04:07.373Z,26.55
2022-12-17T00:06:52.015Z,24.00
2022-12-17T00:09:36.761Z,27.90
2022-12-17T00:12:21.881Z,23.00
2022-12-17T00:15:06.924Z,17.42
2022-12-17T00:17:51.704Z,19.58
2022-12-17T00:20:36.856Z,18.30
2022-12-17T00:23:23.168Z,18.20
2022-12-17T00:26:12.620Z,12.60
2022-12-17T00:28:57.872Z,13.98
2022-12-17T00:31:45.212Z,12.73
2022-12-17T00:34:30.080Z,16.55
2022-12-17T00:37:17.036Z,14.52
2022-12-17T00:40:02.216Z,13.93
2022-12-17T00:42:47.356Z,15.55
2022-12-17T00:45:32.410Z,15.05
2022-12-17T00:48:17.160Z,14.38
2022-12-17T00:51:01.919Z,14.32
2022-12-17T00:53:46.615Z,15.35
2022-12-17T00:56:31.363Z,19.52
2022-12-17T00:59:16.436Z,16.80
2022-12-17T01:02:01.658Z,14.50
2022-12-17T01:04:46.695Z,15.15
2022-12-17T01:07:31.305Z,13.43
2022-12-17T01:10:16.144Z,16.80
2022-12-17T01:13:01.242Z,13.98
2022-12-17T01:15:47.049Z,11.77
2022-12-17T01:18:37.310Z,13.82
2022-12-17T01:21:22.604Z,11.50
2022-12-17T01:24:07.696Z,14.02
2022-12-17T01:26:54.083Z,11.07
2022-12-17T01:29:41.202Z,12.50
2022-12-17T01:32:25.822Z,12.73
2022-12-17T01:35:10.858Z,14.27
2022-12-17T01:37:55.608Z,14.93
2022-12-17T01:40:40.827Z,9.43
2022-12-17T01:43:30.310Z,11.90
2022-12-17T01:46:16.143Z,12.82
2022-12-17T01:49:03.854Z,12.35
2022-12-17T01:51:49.302Z,11.48
2022-12-17T01:54:34.952Z,13.90
2022-12-17T01:57:21.077Z,11.45
2022-12-17T02:00:14.709Z,11.13
2022-12-17T02:03:00.536Z,12.63
2022-12-17T02:05:52.050Z,9.73
2022-12-17T02:08:49.089Z,10.80
2022-12-17T02:11:48.471Z,14.43
2022-12-17T02:14:47.474Z,10.80
2022-12-17T02:17:36.493Z,10.98
2022-12-17T02:20:42.805Z,10.65
2022-12-17T02:23:33.006Z,13.45
2022-12-17T02:26:21.622Z,9.73
2022-12-17T02:29:10.119Z,9.13
2022-12-17T02:31:57.836Z,10.32
2022-12-17T02:34:43.008Z,12.90
2022-12-17T02:37:27.769Z,10.30
2022-12-17T02:40:12.814Z,9.98
2022-12-17T02:42:57.682Z,9.20
2022-12-17T02:45:43.238Z,7.55
2022-12-17T02:48:28.527Z,8.50
2022-12-17T02:51:15.483Z,9.13
2022-12-17T02:54:04.742Z,10.45
2022-12-17T02:56:49.412Z,12.95
2022-12-17T02:59:34.627Z,10.00
2022-12-17T03:02:19.589Z,7.80
2022-12-17T03:05:21.466Z,11.20
2022-12-17T03:08:09.515Z,9.10
2022-12-17T03:10:54.250Z,10.40
2022-12-17T03:13:45.898Z,10.82
2022-12-17T03:16:37.488Z,9.38
2022-12-17T03:19:23.233Z,7.93
2022-12-17T03:22:08.207Z,13.05
2022-12-17T03:24:53.179Z,11.30
2022-12-17T03:27:51.740Z,10.02
2022-12-17T03:30:38.591Z,9.80
2022-12-17T03:33:27.125Z,10.10
2022-12-17T03:36:12.917Z,8.20
2022-12-17T03:38:57.949Z,9.73
2022-12-17T03:41:42.700Z,10.40
2022-12-17T03:44:27.485Z,9.57
2022-12-17T03:47:12.295Z,12.05
2022-12-17T03:49:57.080Z,10.52
2022-12-17T03:52:42.098Z,9.95
2022-12-17T03:55:27.306Z,9.93
2022-12-17T03:58:12.108Z,7.72
2022-12-17T04:00:56.809Z,10.45
2022-12-17T04:03:41.758Z,8.68
2022-12-17T04:06:28.393Z,10.05
2022-12-17T04:09:13.528Z,9.38
2022-12-17T04:11:59.122Z,8.63
2022-12-17T04:14:43.962Z,9.38
2022-12-17T04:17:28.860Z,9.18
2022-12-17T04:20:13.662Z,9.20
2022-12-17T04:22:58.433Z,8.85
2022-12-17T04:25:43.331Z,10.25
2022-12-17T04:28:28.365Z,8.43
2022-12-17T04:31:13.662Z,11.07
2022-12-17T04:33:58.408Z,12.23
2022-12-17T04:36:43.287Z,9.10
2022-12-17T04:39:28.309Z,10.05
2022-12-17T04:42:13.294Z,8.32
2022-12-17T04:44:58.288Z,9.75
2022-12-17T04:47:43.714Z,10.10
2022-12-17T04:50:28.373Z,9.68
2022-12-17T04:53:23.956Z,9.95
2022-12-17T04:56:09.408Z,8.85
2022-12-17T04:58:54.554Z,9.70
2022-12-17T05:01:39.578Z,10.18
2022-12-17T05:04:24.562Z,8.73
2022-12-17T05:07:09.309Z,10.73
2022-12-17T05:10:01.750Z,10.30
2022-12-17T05:12:54.062Z,8.48
2022-12-17T05:15:39.203Z,9.20
2022-12-17T05:18:26.026Z,8.73
2022-12-17T05:21:11.333Z,9.05
2022-12-17T05:23:56.712Z,8.98
2022-12-17T05:26:46.350Z,8.55
2022-12-17T05:29:31.572Z,10.98
2022-12-17T05:32:17.125Z,8.02
2022-12-17T05:35:02.079Z,9.93
2022-12-17T05:37:46.997Z,8.48
2022-12-17T05:40:31.873Z,8.57
2022-12-17T05:43:21.906Z,9.98
2022-12-17T05:46:07.133Z,8.95
2022-12-17T05:48:53.209Z,7.55
2022-12-17T05:51:39.039Z,9.52
2022-12-17T05:54:24.991Z,8.20
2022-12-17T05:57:10.584Z,7.53
2022-12-17T05:59:55.524Z,11.57
2022-12-17T06:02:41.024Z,13.32
2022-12-17T06:05:28.284Z,13.35
2022-12-17T06:08:23.932Z,10.15
2022-12-17T06:11:08.586Z,10.63
2022-12-17T06:13:53.496Z,10.73
2022-12-17T06:16:39.165Z,13.38
2022-12-17T06:19:24.286Z,13.00
2022-12-17T06:22:09.243Z,11.13
2022-12-17T06:24:54.021Z,13.43
2022-12-17T06:27:38.870Z,17.50
2022-12-17T06:30:24.089Z,15.38
2022-12-17T06:33:08.861Z,11.05
2022-12-17T06:35:53.448Z,12.48
2022-12-17T06:38:38.715Z,12.43
2022-12-17T06:41:23.403Z,14.82
2022-12-17T06:44:08.774Z,11.25
2022-12-17T06:46:53.565Z,16.80
2022-12-17T06:49:48.874Z,17.00
2022-12-17T06:52:33.621Z,14.05
2022-12-17T06:55:18.789Z,14.38
2022-12-17T06:58:03.761Z,11.57
2022-12-17T07:00:48.676Z,15.02
2022-12-17T07:03:33.786Z,19.67
2022-12-17T07:06:22.738Z,16.73
2022-12-17T07:09:07.990Z,14.38
2022-12-17T07:11:53.085Z,15.65
2022-12-17T07:14:37.837Z,13.02
2022-12-17T07:17:22.574Z,14.95
2022-12-17T07:20:07.809Z,13.63
2022-12-17T07:22:52.970Z,23.20
2022-12-17T07:25:40.512Z,29.90
2022-12-17T07:28:29.241Z,26.77
2022-12-17T07:31:15.102Z,21.52
2022-12-17T07:34:00.074Z,27.02
2022-12-17T07:36:44.781Z,19.23
2022-12-17T07:39:29.923Z,20.25
2022-12-17T07:42:14.600Z,24.50
2022-12-17T07:44:59.357Z,18.75
2022-12-17T07:47:44.210Z,24.10
2022-12-17T07:50:29.015Z,22.40
2022-12-17T07:53:21.183Z,27.77
2022-12-17T07:56:05.916Z,26.67
2022-12-17T07:58:50.943Z,27.38
2022-12-17T08:01:43.328Z,29.60
2022-12-17T08:04:28.284Z,30.15
2022-12-17T08:07:14.251Z,29.67
2022-12-17T08:10:01.144Z,34.15
2022-12-17T08:12:46.135Z,34.20
2022-12-17T08:15:31.140Z,33.13
2022-12-17T08:18:26.376Z,37.15
2022-12-17T08:21:12.446Z,36.45
2022-12-17T08:23:57.307Z,39.67
2022-12-17T08:26:47.592Z,35.03
2022-12-17T08:29:32.665Z,34.47
2022-12-17T08:32:17.473Z,38.22
2022-12-17T08:35:02.683Z,33.35
2022-12-17T08:37:49.120Z,35.17
2022-12-17T08:40:34.337Z,44.53
2022-12-17T08:43:19.173Z,39.08
2022-12-17T08:46:06.230Z,38.75
2022-12-17T08:48:51.029Z,41.08
2022-12-17T08:51:36.041Z,42.75
2022-12-17T08:54:21.020Z,36.47
2022-12-17T08:57:06.083Z,34.75
2022-12-17T08:59:50.810Z,35.67
2022-12-17T09:02:35.949Z,34.47
2022-12-17T09:05:20.997Z,39.78
2022-12-17T09:08:06.250Z,34.65
2022-12-17T09:10:50.921Z,44.70
2022-12-17T09:13:43.207Z,37.80
2022-12-17T09:16:28.169Z,39.22
2022-12-17T09:19:13.057Z,47.25
2022-12-17T09:21:58.140Z,49.00
2022-12-17T09:24:43.085Z,36.60
2022-12-17T09:27:27.781Z,47.42
2022-12-17T09:30:12.853Z,52.35
2022-12-17T09:32:57.961Z,56.38
2022-12-17T09:35:42.895Z,67.07
2022-12-17T09:38:30.613Z,71.60
2022-12-17T09:41:20.584Z,59.85
2022-12-17T09:44:15.683Z,66.30
2022-12-17T09:47:13.351Z,63.25
2022-12-17T09:49:58.323Z,54.30
2022-12-17T09:52:50.199Z,46.08
2022-12-17T09:55:47.429Z,42.90
2022-12-17T09:58:54.123Z,38.70
2022-12-17T10:01:50.134Z,40.15
2022-12-17T10:04:53.715Z,35.17
2022-12-17T10:07:44.257Z,29.08
2022-12-17T10:10:41.166Z,27.27
2022-12-17T10:13:34.680Z,30.35
2022-12-17T10:16:20.170Z,30.20
2022-12-17T10:19:05.513Z,29.08
2022-12-17T10:21:50.471Z,29.10
2022-12-17T10:24:35.188Z,33.85
2022-12-17T10:27:27.933Z,30.67
2022-12-17T10:30:12.608Z,31.00
2022-12-17T10:32:57.606Z,32.25
2022-12-17T10:35:44.828Z,33.10
2022-12-17T10:38:47.496Z,30.63
2022-12-17T10:41:46.276Z,28.38
2022-12-17T10:44:47.396Z,27.73
2022-12-17T10:47:42.283Z,28.98
2022-12-17T10:50:39.440Z,24.77
2022-12-17T10:53:37.055Z,41.90
2022-12-17T10:56:22.454Z,26.08
2022-12-17T10:59:09.941Z,29.25
2022-12-17T11:01:56.117Z,27.83
2022-12-17T11:04:45.607Z,28.98
2022-12-17T11:07:44.728Z,29.85
2022-12-17T11:10:38.970Z,29.50
2022-12-17T11:16:12.711Z,28.30
2022-12-17T11:18:57.463Z,27.92
2022-12-17T11:21:49.981Z,30.05
2022-12-17T11:24:47.038Z,25.40
2022-12-17T11:27:37.924Z,29.73
2022-12-17T11:30:33.150Z,27.63
2022-12-17T11:33:26.119Z,31.08
2022-12-17T11:36:17.409Z,33.53
2022-12-17T11:39:24.209Z,29.35
2022-12-17T11:42:18.864Z,33.30
2022-12-17T11:45:13.128Z,31.17
2022-12-17T11:48:03.901Z,32.58
2022-12-17T11:51:03.230Z,34.13
2022-12-17T11:54:05.894Z,34.15
2022-12-17T11:56:58.504Z,34.63
2022-12-17T11:59:54.218Z,35.42
2022-12-17T12:03:14.485Z,37.92
2022-12-17T12:06:12.645Z,38.72
2022-12-17T12:09:22.715Z,36.95
2022-12-17T12:12:30.355Z,34.70
2022-12-17T12:15:44.667Z,40.80
2022-12-17T12:18:40.297Z,39.53
2022-12-17T12:21:31.724Z,39.55
2022-12-17T12:24:53.733Z,37.78
2022-12-17T12:27:57.237Z,35.42
2022-12-17T12:30:43.801Z,36.00
2022-12-17T12:34:09.628Z,36.00
2022-12-17T12:36:56.216Z,36.80
2022-12-17T12:39:50.001Z,40.17
2022-12-17T12:43:01.658Z,33.42
2022-12-17T12:46:13.243Z,36.20
2022-12-17T12:49:13.596Z,38.95
2022-12-17T12:51:58.621Z,31.55
2022-12-17T12:54:49.275Z,32.92
2022-12-17T12:57:54.702Z,34.92
2022-12-17T13:00:44.285Z,33.60
2022-12-17T13:03:48.752Z,35.88
2022-12-17T13:09:14.693Z,34.17
2022-12-17T13:11:43.267Z,35.15
2022-12-17T13:14:20.197Z,37.40
2022-12-17T13:16:46.517Z,35.75
2022-12-17T13:19:31.249Z,32.03
2022-12-17T13:22:20.260Z,37.22
2022-12-17T13:24:50.968Z,33.63
2022-12-17T13:27:39.133Z,36.00
2022-12-17T13:30:17.786Z,37.28
2022-12-17T13:33:02.397Z,57.50
2022-12-17T13:35:54.183Z,36.40
2022-12-17T13:38:28.067Z,38.88
2022-12-17T13:41:10.203Z,31.02
2022-12-17T13:43:49.022Z,36.00
2022-12-17T13:46:23.975Z,39.15
2022-12-17T13:49:29.848Z,38.65
2022-12-17T13:52:18.029Z,40.55
2022-12-17T13:54:44.787Z,40.97
2022-12-17T13:57:17.137Z,37.45
2022-12-17T13:59:54.723Z,47.22
2022-12-17T14:02:26.360Z,41.40
2022-12-17T14:04:54.004Z,45.58
2022-12-17T14:07:21.080Z,41.75
2022-12-17T14:09:48.162Z,40.55
2022-12-17T14:12:25.232Z,42.10
2022-12-17T14:14:57.039Z,43.30
2022-12-17T14:17:36.576Z,45.70
2022-12-17T14:20:29.199Z,45.38
2022-12-17T14:23:00.611Z,45.63
2022-12-17T14:25:35.577Z,41.00
2022-12-17T14:28:19.085Z,50.20
2022-12-17T14:31:24.342Z,46.13
2022-12-17T14:33:34.334Z,46.13
2022-12-17T14:36:04.032Z,46.10
2022-12-17T14:38:38.337Z,47.25
2022-12-17T14:41:30.078Z,46.67
2022-12-17T14:43:58.622Z,41.60
2022-12-17T14:46:25.367Z,42.45
2022-12-17T14:49:02.209Z,37.30
2022-12-17T14:51:36.806Z,39.20
2022-12-17T14:54:28.918Z,44.15
2022-12-17T14:56:57.558Z,40.20
2022-12-17T14:59:32.857Z,36.60
2022-12-17T15:02:08.563Z,36.30
2022-12-17T15:04:37.638Z,35.90
2022-12-17T15:07:04.285Z,40.25
2022-12-17T15:09:30.640Z,39.63
2022-12-17T15:12:00.217Z,41.40
2022-12-17T15:14:26.576Z,45.53
2022-12-17T15:16:52.969Z,46.60
2022-12-17T15:19:19.362Z,39.63
2022-12-17T15:21:45.717Z,51.88
2022-12-17T15:24:19.248Z,73.70
2022-12-17T15:26:45.976Z,67.60
2022-12-17T15:29:12.576Z,75.80
2022-12-17T15:31:39.251Z,73.57
2022-12-17T15:34:05.797Z,52.63
2022-12-17T15:36:32.673Z,44.35
2022-12-17T15:38:59.235Z,38.65
2022-12-17T15:41:44.641Z,32.83
2022-12-17T15:44:11.075Z,32.50
2022-12-17T15:46:37.552Z,31.02
2022-12-17T15:49:03.908Z,31.52
2022-12-17T15:51:30.306Z,29.75
2022-12-17T15:53:56.987Z,36.08
2022-12-17T15:56:25.295Z,32.67
2022-12-17T15:58:51.969Z,33.22
2022-12-17T16:01:18.907Z,31.02
2022-12-17T16:03:45.680Z,35.05
2022-12-17T16:06:12.065Z,37.70
2022-12-17T16:08:40.146Z,34.55
2022-12-17T16:11:11.263Z,33.95
2022-12-17T16:13:38.128Z,37.45
2022-12-17T16:16:05.924Z,37.55
2022-12-17T16:18:32.601Z,37.35
2022-12-17T16:21:06.506Z,35.97
2022-12-17T16:23:33.208Z,37.10
2022-12-17T16:26:01.434Z,38.50
2022-12-17T16:28:28.266Z,41.47
2022-12-17T16:31:02.517Z,38.03
2022-12-17T16:33:36.288Z,44.05
2022-12-17T16:36:03.384Z,41.78
2022-12-17T16:38:30.069Z,40.17
2022-12-17T16:41:01.120Z,43.45
2022-12-17T16:43:28.481Z,50.28
2022-12-17T16:45:55.091Z,45.88
2022-12-17T16:48:22.033Z,41.83
2022-12-17T16:50:48.950Z,43.28
2022-12-17T16:53:15.816Z,42.17
2022-12-17T16:55:44.881Z,42.92
2022-12-17T16:58:11.793Z,41.75
2022-12-17T17:00:38.198Z,49.42
2022-12-17T17:03:06.053Z,43.50
2022-12-17T17:05:33.997Z,51.42
2022-12-17T17:08:00.535Z,41.95
2022-12-17T17:10:27.575Z,43.22
2022-12-17T17:12:54.588Z,41.70
2022-12-17T17:15:22.288Z,45.95
2022-12-17T17:17:54.551Z,50.45
2022-12-17T17:20:24.232Z,49.97
2022-12-17T17:22:50.567Z,48.20
2022-12-17T17:25:16.950Z,49.00
2022-12-17T17:27:43.306Z,51.42
2022-12-17T17:30:10.274Z,50.30
2022-12-17T17:32:36.960Z,50.35
2022-12-17T17:35:03.888Z,55.63
2022-12-17T17:37:30.205Z,49.78
2022-12-17T17:39:56.504Z,52.35
2022-12-17T17:42:22.917Z,55.80
2022-12-17T17:44:49.366Z,58.33
2022-12-17T17:47:15.987Z,54.38
2022-12-17T17:49:44.297Z,46.33
2022-12-17T17:52:11.610Z,49.35
2022-12-17T17:54:42.295Z,49.20
2022-12-17T17:57:09.821Z,45.60
2022-12-17T17:59:36.273Z,40.45
2022-12-17T18:02:03.428Z,43.72
2022-12-17T18:04:30.816Z,48.42
2022-12-17T18:09:43.815Z,47.80
2022-12-17T18:12:28.457Z,50.75
2022-12-17T18:17:41.452Z,49.65
2022-12-17T18:20:09.482Z,48.75
2022-12-17T18:22:35.958Z,44.95
2022-12-17T18:25:02.324Z,50.05
2022-12-17T18:27:28.731Z,51.85
2022-12-17T18:29:55.111Z,53.58
2022-12-17T18:32:21.447Z,50.03
2022-12-17T18:34:47.955Z,48.38
2022-12-17T18:37:14.319Z,50.92
2022-12-17T18:39:40.938Z,48.28
2022-12-17T18:42:27.168Z,45.75
2022-12-17T18:44:53.679Z,48.45
2022-12-17T18:47:20.124Z,55.92
2022-12-17T18:49:46.627Z,49.05
2022-12-17T18:52:16.678Z,57.40
2022-12-17T18:54:43.461Z,55.53
2022-12-17T18:57:09.887Z,53.80
2022-12-17T18:59:36.199Z,54.35
2022-12-17T19:02:04.495Z,58.85
2022-12-17T19:04:32.726Z,56.33
2022-12-17T19:06:59.151Z,52.72
2022-12-17T19:09:28.889Z,56.72
2022-12-17T19:11:56.215Z,62.45
2022-12-17T19:14:23.236Z,54.33
2022-12-17T19:16:51.082Z,62.72
2022-12-17T19:19:18.257Z,59.30
2022-12-17T19:21:44.794Z,59.25
2022-12-17T19:24:16.028Z,59.38
2022-12-17T19:26:42.781Z,56.40
2022-12-17T19:29:11.498Z,55.67
2022-12-17T19:31:38.271Z,58.65
2022-12-17T19:34:06.291Z,50.42
2022-12-17T19:36:34.499Z,56.80
2022-12-17T19:39:04.233Z,59.00
2022-12-17T19:41:32.727Z,66.60
2022-12-17T19:44:03.754Z,63.63
2022-12-17T19:46:31.400Z,57.10
2022-12-17T19:48:57.921Z,58.53
2022-12-17T19:51:27.353Z,55.90
2022-12-17T19:53:54.596Z,60.22
2022-12-17T19:56:30.819Z,52.88
2022-12-17T19:59:02.052Z,54.78
2022-12-17T20:01:32.762Z,63.10
2022-12-17T20:03:59.540Z,58.22
2022-12-17T20:06:31.101Z,66.13
2022-12-17T20:08:58.430Z,58.50
2022-12-17T20:11:34.288Z,64.63
2022-12-17T20:14:22.003Z,68.28
2022-12-17T20:16:50.689Z,66.38
2022-12-17T20:19:22.065Z,56.83
2022-12-17T20:21:48.914Z,56.45
2022-12-17T20:24:16.359Z,62.72
2022-12-17T20:26:44.259Z,59.58
2022-12-17T20:29:10.764Z,60.40
2022-12-17T20:31:37.536Z,58.28
2022-12-17T20:34:05.780Z,43.47
2022-12-17T20:36:32.093Z,94.93
2022-12-17T20:38:58.454Z,68.68
2022-12-17T20:41:26.903Z,73.30
2022-12-17T20:43:53.685Z,52.40
2022-12-17T20:46:21.043Z,60.08
2022-12-17T20:48:47.835Z,54.38
2022-12-17T20:51:19.710Z,55.30
2022-12-17T20:53:47.209Z,56.78
2022-12-17T20:56:16.172Z,48.35
2022-12-17T20:58:43.317Z,55.20
2022-12-17T21:01:15.730Z,48.42
2022-12-17T21:03:42.973Z,51.03
2022-12-17T21:06:17.954Z,50.33
2022-12-17T21:08:49.695Z,51.80
2022-12-17T21:11:22.005Z,50.95
2022-12-17T21:13:48.537Z,53.28
2022-12-17T21:16:18.285Z,45.20
2022-12-17T21:18:44.833Z,53.28
2022-12-17T21:21:14.853Z,50.20
2022-12-17T21:23:41.217Z,52.70
2022-12-17T21:26:08.744Z,56.28
2022-12-17T21:28:38.202Z,54.47
2022-12-17T21:31:05.776Z,53.67
2022-12-17T21:33:33.394Z,56.05
2022-12-17T21:36:00.418Z,53.83
2022-12-17T21:38:27.688Z,54.35
2022-12-17T21:40:54.924Z,49.40
2022-12-17T21:43:21.735Z,51.45
2022-12-17T21:45:48.163Z,48.17
2022-12-17T21:48:15.375Z,53.63
2022-12-17T21:50:43.163Z,48.95
2022-12-17T21:53:10.791Z,49.88
2022-12-17T21:55:37.545Z,53.03
2022-12-17T21:58:06.335Z,55.00
2022-12-17T22:00:32.654Z,49.97
2022-12-17T22:02:59.183Z,50.90
2022-12-17T22:05:26.159Z,48.75
2022-12-17T22:07:52.550Z,47.63
2022-12-17T22:10:42.169Z,55.20
2022-12-17T22:13:24.268Z,47.22
2022-12-17T22:15:50.846Z,48.30
2022-12-17T22:18:17.384Z,49.42
2022-12-17T22:20:43.856Z,45.55
2022-12-17T22:23:10.223Z,44.92
2022-12-17T22:25:38.408Z,44.80
2022-12-17T22:28:05.068Z,50.63
2022-12-17T22:30:50.115Z,44.55
2022-12-17T22:33:38.500Z,45.75
2022-12-17T22:37:51.266Z,47.83
2022-12-17T22:41:34.082Z,47.58
2022-12-17T22:44:48.900Z,48.35
2022-12-17T22:44:53.346Z,43.45
2022-12-17T22:47:21.173Z,42.92
2022-12-17T22:49:47.527Z,47.20
2022-12-17T22:52:14.092Z,50.90
2022-12-17T22:54:42.938Z,44.35
2022-12-17T22:57:34.470Z,48.45
2022-12-17T22:59:56.266Z,48.15
2022-12-17T23:02:23.307Z,46.10
2022-12-17T23:04:49.863Z,43.67
2022-12-17T23:07:16.270Z,45.85
2022-12-17T23:09:44.421Z,53.13
2022-12-17T23:12:29.148Z,40.67
2022-12-17T23:14:55.464Z,43.67
2022-12-17T23:17:21.788Z,45.70
2022-12-17T23:19:48.241Z,44.10
2022-12-17T23:22:18.920Z,42.50
2022-12-17T23:24:48.472Z,42.70
2022-12-17T23:27:14.805Z,48.05
2022-12-17T23:29:41.144Z,42.53
2022-12-17T23:32:07.525Z,41.75
2022-12-17T23:34:33.829Z,43.80
2022-12-17T23:37:00.255Z,45.53
2022-12-17T23:39:26.882Z,43.38
2022-12-17T23:41:56.248Z,45.22
2022-12-17T23:44:22.669Z,42.58
2022-12-17T23:46:49.259Z,46.83
2022-12-17T23:49:15.686Z,44.63
2022-12-17T23:51:42.099Z,45.67
2022-12-17T23:54:08.718Z,43.45
2022-12-17T23:56:36.480Z,42.67
2022-12-17T23:59:03.261Z,40.00
